Time;durP1;ratioP1;P1;durP2;ratioP2;P2;SDS_P1;SDS_P2;PMS_P1;PMS_P2;Temp;Humidity;BMP_temperature;BMP_pressure;BME280_temperature;BME280_humidity;BME280_pressure;Samples;Min_cycle;Max_cycle;Signal;HPM_P1;HPM_P2
2021/08/07 00:00:42;;;;;;;3.97;2.28;;;14.60;99.90;;;;;;5005834;28;20034;-76
2021/08/07 00:03:08;;;;;;;4.22;2.33;;;14.60;99.90;;;;;;5001252;28;20030;-76
2021/08/07 00:05:33;;;;;;;3.03;1.90;;;14.40;99.90;;;;;;5002610;28;20033;-76
2021/08/07 00:07:59;;;;;;;2.53;1.90;;;14.40;99.90;;;;;;5007761;28;20077;-76
2021/08/07 00:10:25;;;;;;;5.38;2.50;;;14.50;99.90;;;;;;5005392;28;20073;-77
2021/08/07 00:12:50;;;;;;;3.92;2.08;;;14.50;99.90;;;;;;4999711;28;20485;-76
2021/08/07 00:15:16;;;;;;;4.70;2.33;;;14.40;99.90;;;;;;5000204;28;20060;-76
2021/08/07 00:17:41;;;;;;;5.53;2.10;;;14.30;99.90;;;;;;5007393;28;20109;-76
2021/08/07 00:20:08;;;;;;;4.43;2.50;;;14.20;99.90;;;;;;4994283;28;20097;-77
2021/08/07 00:22:33;;;;;;;3.20;2.20;;;14.30;99.90;;;;;;5007475;28;20030;-75
2021/08/07 00:24:59;;;;;;;3.53;2.00;;;14.40;99.90;;;;;;5005571;28;20026;-76
2021/08/07 00:27:25;;;;;;;2.97;2.50;;;14.50;99.90;;;;;;5000557;28;20026;-76
2021/08/07 00:29:51;;;;;;;2.83;2.25;;;14.50;99.90;;;;;;5002513;28;20026;-76
2021/08/07 00:32:16;;;;;;;6.45;2.30;;;14.50;99.90;;;;;;4998802;28;20033;-76
2021/08/07 00:34:42;;;;;;;3.25;2.10;;;14.60;99.90;;;;;;5002196;28;20062;-77
2021/08/07 00:37:08;;;;;;;2.53;2.00;;;14.70;99.90;;;;;;4998770;28;20030;-76
2021/08/07 00:39:34;;;;;;;5.05;2.20;;;14.80;99.90;;;;;;5002261;28;20025;-76
2021/08/07 00:42:00;;;;;;;4.05;1.95;;;14.90;99.90;;;;;;5006922;28;20046;-76
2021/08/07 00:44:25;;;;;;;2.20;1.70;;;15.00;99.90;;;;;;5004975;28;20022;-76
2021/08/07 00:46:51;;;;;;;3.47;1.83;;;15.00;99.90;;;;;;5000018;28;20036;-77
2021/08/07 00:49:17;;;;;;;2.95;1.95;;;15.00;99.90;;;;;;5002121;28;20038;-76
2021/08/07 00:51:44;;;;;;;3.00;1.80;;;15.00;99.90;;;;;;5006858;28;20141;-76
2021/08/07 00:54:09;;;;;;;3.50;2.10;;;15.00;99.90;;;;;;5004925;28;20688;-76
2021/08/07 00:56:35;;;;;;;2.92;1.80;;;15.00;99.90;;;;;;4999702;28;20030;-76
2021/08/07 00:59:01;;;;;;;3.63;1.80;;;15.00;99.90;;;;;;5001123;28;20121;-77
2021/08/07 01:01:32;;;;;;;2.75;1.90;;;15.00;99.90;;;;;;5010687;28;20034;-77
2021/08/07 01:03:58;;;;;;;2.92;1.90;;;14.90;99.90;;;;;;5001856;28;20025;-76
2021/08/07 01:06:39;;;;;;;4.30;2.20;;;15.00;99.90;;;;;;5011133;28;20022;-76
2021/08/07 01:09:29;;;;;;;5.10;2.10;;;14.90;99.90;;;;;;4998762;28;20026;-76
2021/08/07 01:12:03;;;;;;;5.78;2.03;;;15.00;99.90;;;;;;5001668;28;20053;-77
2021/08/07 01:14:35;;;;;;;4.88;2.10;;;14.80;99.90;;;;;;4995667;28;20049;-76
2021/08/07 01:17:03;;;;;;;4.78;1.92;;;14.80;99.90;;;;;;5005924;28;20526;-75
2021/08/07 01:19:43;;;;;;;3.47;1.98;;;14.70;99.90;;;;;;4999594;28;20034;-76
2021/08/07 01:22:08;;;;;;;3.50;1.90;;;14.80;99.90;;;;;;4999616;28;20026;-76
2021/08/07 01:24:56;;;;;;;2.60;1.70;;;14.80;99.90;;;;;;5012614;28;20385;-76
2021/08/07 01:27:25;;;;;;;4.25;1.80;;;14.90;99.90;;;;;;4998323;28;20468;-76
2021/08/07 01:29:55;;;;;;;2.75;1.90;;;14.80;99.90;;;;;;5000502;28;20038;-76
2021/08/07 01:32:25;;;;;;;2.72;2.08;;;14.70;99.90;;;;;;5011079;28;20066;-76
2021/08/07 01:34:53;;;;;;;2.50;2.25;;;14.60;99.90;;;;;;5000384;28;20418;-76
2021/08/07 01:37:19;;;;;;;4.97;2.78;;;14.60;99.90;;;;;;5006014;28;20547;-76
2021/08/07 01:39:47;;;;;;;2.78;2.20;;;14.60;99.90;;;;;;5005590;28;20065;-76
2021/08/07 01:42:13;;;;;;;2.78;1.90;;;14.50;99.90;;;;;;5006324;28;20034;-76
2021/08/07 01:44:38;;;;;;;6.40;2.38;;;14.50;99.90;;;;;;5005272;28;20032;-74
2021/08/07 01:47:18;;;;;;;4.38;2.25;;;14.30;99.90;;;;;;4999306;28;20065;-77
2021/08/07 01:49:58;;;;;;;5.32;2.45;;;14.20;99.90;;;;;;4997772;28;20026;-76
2021/08/07 01:52:27;;;;;;;4.78;2.25;;;14.30;99.90;;;;;;4993995;28;20464;-77
2021/08/07 01:54:59;;;;;;;5.38;2.38;;;14.30;99.90;;;;;;5004731;28;20030;-76
2021/08/07 01:57:27;;;;;;;3.70;1.90;;;14.30;99.90;;;;;;5001875;28;20029;-76
2021/08/07 01:59:55;;;;;;;4.32;1.98;;;14.20;99.90;;;;;;4998951;28;20026;-75
2021/08/07 02:02:21;;;;;;;5.35;2.15;;;14.30;99.90;;;;;;5000636;28;20436;-75
2021/08/07 02:04:47;;;;;;;5.15;2.13;;;14.30;99.90;;;;;;4997537;28;20018;-75
2021/08/07 02:07:14;;;;;;;5.15;2.22;;;14.20;99.90;;;;;;5000668;28;20030;-75
2021/08/07 02:09:40;;;;;;;2.08;1.92;;;14.20;99.90;;;;;;5010759;28;20029;-75
2021/08/07 02:12:07;;;;;;;3.95;1.98;;;14.30;99.90;;;;;;5000256;28;20026;-76
2021/08/07 02:14:34;;;;;;;4.03;2.20;;;14.30;99.90;;;;;;5010708;28;20025;-75
2021/08/07 02:17:02;;;;;;;3.13;1.92;;;14.00;99.90;;;;;;5011938;28;20506;-75
2021/08/07 02:19:29;;;;;;;3.97;2.15;;;14.00;99.90;;;;;;4998717;28;20388;-75
2021/08/07 02:21:56;;;;;;;4.22;2.15;;;14.00;99.90;;;;;;4999103;28;20041;-75
2021/08/07 02:24:26;;;;;;;3.33;2.03;;;14.00;99.90;;;;;;5004071;28;20512;-75
2021/08/07 02:26:54;;;;;;;4.35;2.17;;;14.00;99.90;;;;;;5005544;28;20120;-75
2021/08/07 02:29:20;;;;;;;3.88;1.90;;;14.00;99.90;;;;;;4998078;28;20028;-74
2021/08/07 02:31:47;;;;;;;3.55;2.38;;;14.10;99.90;;;;;;4998836;28;20369;-74
2021/08/07 02:34:13;;;;;;;2.90;2.15;;;14.10;99.90;;;;;;5005297;28;20035;-76
2021/08/07 02:36:40;;;;;;;2.30;2.10;;;14.00;99.90;;;;;;5005398;28;20081;-75
2021/08/07 02:39:06;;;;;;;3.28;2.60;;;13.80;99.90;;;;;;4999159;28;20030;-74
2021/08/07 02:41:32;;;;;;;4.03;2.83;;;13.60;99.90;;;;;;4997191;28;20124;-74
2021/08/07 02:43:58;;;;;;;5.28;2.80;;;13.50;99.90;;;;;;5004900;28;20097;-75
2021/08/07 02:46:25;;;;;;;2.72;2.47;;;13.30;99.90;;;;;;5003892;28;20029;-76
2021/08/07 02:48:53;;;;;;;6.95;2.60;;;13.50;99.90;;;;;;4999197;28;20053;-76
2021/08/07 02:51:20;;;;;;;3.53;2.55;;;13.60;99.90;;;;;;4998498;28;20022;-75
2021/08/07 02:53:47;;;;;;;4.57;2.80;;;13.70;99.90;;;;;;5004360;28;20077;-76
2021/08/07 02:56:13;;;;;;;4.28;2.35;;;13.60;99.90;;;;;;5005219;28;20029;-76
2021/08/07 02:58:40;;;;;;;3.95;2.40;;;13.70;99.90;;;;;;4998314;28;20032;-75
2021/08/07 03:01:05;;;;;;;6.03;2.70;;;13.70;99.90;;;;;;4998395;28;20092;-75
2021/08/07 03:03:31;;;;;;;4.03;2.60;;;13.80;99.90;;;;;;5002864;28;20461;-74
2021/08/07 03:05:56;;;;;;;6.05;2.75;;;13.90;99.90;;;;;;5004772;28;20029;-75
2021/08/07 03:08:22;;;;;;;3.08;2.47;;;13.70;99.90;;;;;;4999057;28;20108;-76
2021/08/07 03:10:47;;;;;;;3.80;2.60;;;13.50;99.90;;;;;;5000750;28;20396;-75
2021/08/07 03:13:13;;;;;;;2.92;2.40;;;13.60;99.90;;;;;;5008179;28;20030;-76
2021/08/07 03:15:39;;;;;;;6.32;2.60;;;13.90;99.90;;;;;;4996819;28;20102;-75
2021/08/07 03:18:04;;;;;;;4.85;2.80;;;13.80;99.90;;;;;;5007307;28;20101;-75
2021/08/07 03:20:30;;;;;;;3.45;2.90;;;13.70;99.90;;;;;;4996515;28;20493;-76
2021/08/07 03:23:02;;;;;;;3.70;2.30;;;13.80;99.90;;;;;;5007291;28;20069;-75
2021/08/07 03:25:28;;;;;;;4.28;2.45;;;13.90;99.90;;;;;;5007344;28;20076;-75
2021/08/07 03:27:55;;;;;;;4.05;2.10;;;13.90;99.90;;;;;;5003583;28;20033;-75
2021/08/07 03:30:21;;;;;;;2.60;2.40;;;14.00;99.90;;;;;;5001919;28;20033;-76
2021/08/07 03:32:46;;;;;;;3.08;2.15;;;14.10;99.90;;;;;;5005040;28;20113;-76
2021/08/07 03:35:12;;;;;;;5.25;2.45;;;14.10;99.90;;;;;;5006972;28;20518;-76
2021/08/07 03:37:37;;;;;;;2.50;2.20;;;14.00;99.90;;;;;;5002327;28;20461;-77
2021/08/07 03:40:04;;;;;;;3.10;2.13;;;14.10;99.90;;;;;;5014651;28;20488;-75
2021/08/07 03:42:29;;;;;;;2.40;2.20;;;14.10;99.90;;;;;;5006005;28;20069;-75
2021/08/07 03:44:55;;;;;;;3.92;2.10;;;14.10;99.90;;;;;;4996575;28;20057;-75
2021/08/07 03:47:21;;;;;;;3.65;2.40;;;14.10;99.90;;;;;;5006294;28;20023;-76
2021/08/07 03:49:47;;;;;;;4.28;2.25;;;14.20;99.90;;;;;;5007854;28;20526;-76
2021/08/07 03:52:13;;;;;;;3.00;2.20;;;14.20;99.90;;;;;;4995206;28;20030;-74
2021/08/07 03:54:38;;;;;;;5.65;2.35;;;14.10;99.90;;;;;;4993876;28;20043;-74
2021/08/07 03:57:04;;;;;;;4.70;2.50;;;14.10;99.90;;;;;;5003181;28;20068;-74
2021/08/07 03:59:29;;;;;;;2.85;1.98;;;14.10;99.90;;;;;;5011777;28;20030;-76
2021/08/07 04:01:55;;;;;;;3.38;2.00;;;14.10;99.90;;;;;;5002484;28;20075;-77
2021/08/07 04:04:20;;;;;;;4.90;1.98;;;14.00;99.90;;;;;;5000902;28;20038;-76
2021/08/07 04:06:46;;;;;;;2.75;2.00;;;14.00;99.90;;;;;;5012912;28;20022;-74
2021/08/07 04:09:13;;;;;;;4.45;2.20;;;14.00;99.90;;;;;;5000869;28;20580;-74
2021/08/07 04:11:38;;;;;;;3.67;2.20;;;14.00;99.90;;;;;;5006256;28;20025;-75
2021/08/07 04:14:05;;;;;;;5.63;2.50;;;13.90;99.90;;;;;;5008673;28;20026;-74
2021/08/07 04:16:31;;;;;;;5.32;2.20;;;13.90;99.90;;;;;;5005205;28;20077;-73
2021/08/07 04:18:57;;;;;;;3.53;2.50;;;13.90;99.90;;;;;;5006187;28;20030;-73
2021/08/07 04:21:22;;;;;;;5.47;2.25;;;13.80;99.90;;;;;;4993706;28;20089;-74
2021/08/07 04:23:49;;;;;;;7.18;2.80;;;13.80;99.90;;;;;;5007421;28;20084;-74
2021/08/07 04:26:14;;;;;;;12.40;3.28;;;13.70;99.90;;;;;;5002326;28;20423;-74
2021/08/07 04:28:40;;;;;;;7.45;2.40;;;13.70;99.90;;;;;;5000363;28;20026;-74
2021/08/07 04:31:06;;;;;;;5.90;2.70;;;13.70;99.90;;;;;;5005595;28;20029;-74
2021/08/07 04:33:33;;;;;;;4.22;2.35;;;13.70;99.90;;;;;;5005879;28;20029;-74
2021/08/07 04:36:02;;;;;;;6.53;2.35;;;13.60;99.90;;;;;;4993908;28;20480;-74
2021/08/07 04:38:28;;;;;;;10.88;2.60;;;13.70;99.90;;;;;;4993994;28;20038;-74
2021/08/07 04:40:53;;;;;;;4.75;2.20;;;13.80;99.90;;;;;;5002440;28;20109;-74
2021/08/07 04:43:19;;;;;;;4.97;2.47;;;13.90;99.90;;;;;;5000291;28;20062;-74
2021/08/07 04:45:44;;;;;;;3.67;2.25;;;13.90;99.90;;;;;;5004584;28;20029;-74
2021/08/07 04:48:10;;;;;;;4.78;2.00;;;13.90;99.90;;;;;;5007023;28;20076;-74
2021/08/07 04:50:36;;;;;;;5.22;2.17;;;13.90;99.90;;;;;;4993660;28;20038;-73
2021/08/07 04:53:03;;;;;;;2.92;1.83;;;14.00;99.90;;;;;;5006786;28;20113;-74
2021/08/07 04:55:28;;;;;;;3.47;2.20;;;14.20;99.90;;;;;;5001883;28;20026;-75
2021/08/07 04:57:54;;;;;;;6.90;2.20;;;14.30;99.90;;;;;;4998591;28;20037;-74
2021/08/07 05:00:21;;;;;;;5.20;2.20;;;14.40;99.90;;;;;;4993984;28;20084;-74
2021/08/07 05:02:47;;;;;;;4.43;2.20;;;14.50;99.90;;;;;;4992159;28;20026;-74
2021/08/07 05:05:14;;;;;;;3.80;2.25;;;14.50;99.90;;;;;;4993370;28;20029;-75
2021/08/07 05:07:40;;;;;;;3.63;1.95;;;14.50;99.90;;;;;;5006596;28;20092;-74
2021/08/07 05:10:07;;;;;;;3.88;2.00;;;14.70;99.90;;;;;;5002074;28;20014;-74
2021/08/07 05:12:33;;;;;;;2.95;1.88;;;14.90;99.90;;;;;;4999817;28;20037;-74
2021/08/07 05:14:59;;;;;;;4.82;1.80;;;14.90;99.90;;;;;;5012728;28;20096;-74
2021/08/07 05:17:25;;;;;;;3.15;1.80;;;15.10;99.90;;;;;;5010585;28;20084;-75
2021/08/07 05:19:52;;;;;;;2.75;1.80;;;15.20;99.90;;;;;;4993482;28;20026;-76
2021/08/07 05:22:18;;;;;;;3.85;1.50;;;15.30;99.90;;;;;;4998808;28;20041;-75
2021/08/07 05:24:44;;;;;;;5.00;1.90;;;15.40;99.90;;;;;;5002911;28;20027;-75
2021/08/07 05:27:09;;;;;;;4.18;1.90;;;15.50;99.90;;;;;;4991857;28;20076;-74
2021/08/07 05:29:35;;;;;;;2.53;1.77;;;15.60;99.90;;;;;;4993104;28;20077;-75
2021/08/07 05:32:01;;;;;;;4.80;1.95;;;15.80;99.90;;;;;;4993336;28;20062;-73
2021/08/07 05:34:26;;;;;;;4.70;2.20;;;15.80;99.90;;;;;;4993105;28;20026;-73
2021/08/07 05:36:52;;;;;;;6.68;2.10;;;15.70;99.90;;;;;;4997429;28;20117;-75
2021/08/07 05:39:17;;;;;;;5.03;2.17;;;15.50;99.90;;;;;;5003117;28;20233;-75
2021/08/07 05:41:43;;;;;;;9.75;2.15;;;15.50;99.90;;;;;;5005869;28;20041;-75
2021/08/07 05:44:08;;;;;;;3.50;2.03;;;15.50;99.90;;;;;;5000877;28;20477;-75
2021/08/07 05:46:34;;;;;;;4.78;2.03;;;15.70;99.90;;;;;;5000402;28;20026;-75
2021/08/07 05:48:59;;;;;;;5.50;2.13;;;15.70;99.90;;;;;;5003601;28;20034;-74
2021/08/07 05:51:25;;;;;;;4.22;1.83;;;15.80;99.90;;;;;;4992847;28;20643;-75
2021/08/07 05:53:52;;;;;;;3.72;1.90;;;15.70;99.90;;;;;;5002323;28;20111;-74
2021/08/07 05:56:17;;;;;;;5.10;1.80;;;15.90;99.90;;;;;;4996291;28;20027;-74
2021/08/07 05:58:43;;;;;;;3.70;1.80;;;16.10;99.90;;;;;;4994033;28;20030;-74
2021/08/07 06:01:09;;;;;;;3.13;1.83;;;16.20;99.90;;;;;;4993717;28;20036;-74
2021/08/07 06:03:35;;;;;;;2.90;1.85;;;16.30;99.90;;;;;;4993057;28;20030;-74
2021/08/07 06:06:00;;;;;;;5.18;2.25;;;16.50;99.90;;;;;;4994206;28;20030;-74
2021/08/07 06:08:28;;;;;;;4.95;2.25;;;16.60;99.90;;;;;;4994536;28;20025;-74
2021/08/07 06:10:55;;;;;;;3.10;2.00;;;16.70;99.90;;;;;;4992827;28;20392;-74
2021/08/07 06:13:20;;;;;;;4.43;2.00;;;16.80;99.90;;;;;;4993387;28;20023;-74
2021/08/07 06:15:46;;;;;;;4.72;1.98;;;16.90;99.90;;;;;;4994293;28;20085;-74
2021/08/07 06:18:11;;;;;;;4.18;2.30;;;17.00;99.90;;;;;;4994712;28;20552;-74
2021/08/07 06:20:37;;;;;;;4.15;2.17;;;17.00;99.90;;;;;;4994363;28;20077;-74
2021/08/07 06:23:03;;;;;;;4.32;2.10;;;17.10;99.90;;;;;;4993371;28;20084;-74
2021/08/07 06:25:28;;;;;;;5.00;2.10;;;17.20;99.90;;;;;;4994319;28;20045;-74
2021/08/07 06:27:54;;;;;;;2.88;1.60;;;17.30;99.90;;;;;;4994376;28;20025;-74
2021/08/07 06:30:24;;;;;;;2.88;1.58;;;17.40;99.90;;;;;;4994037;28;20074;-74
2021/08/07 06:32:50;;;;;;;4.35;2.05;;;17.40;99.90;;;;;;4994453;28;20481;-74
2021/08/07 06:35:16;;;;;;;3.78;2.03;;;17.50;99.90;;;;;;4994308;28;20037;-74
2021/08/07 06:37:41;;;;;;;4.50;2.13;;;17.40;99.90;;;;;;4994298;28;20034;-74
2021/08/07 06:40:08;;;;;;;3.97;1.65;;;17.50;99.90;;;;;;4994305;28;20029;-74
2021/08/07 06:42:33;;;;;;;3.58;1.88;;;17.60;99.90;;;;;;4994091;28;20031;-74
2021/08/07 06:44:59;;;;;;;2.67;1.80;;;17.70;99.90;;;;;;4996533;28;20385;-74
2021/08/07 06:47:24;;;;;;;1.95;1.58;;;17.80;99.90;;;;;;4997236;28;20401;-74
2021/08/07 06:49:50;;;;;;;3.88;1.85;;;17.90;99.90;;;;;;4996767;28;20027;-74
2021/08/07 06:52:15;;;;;;;3.15;1.90;;;17.90;99.90;;;;;;4996877;28;20030;-74
2021/08/07 06:54:41;;;;;;;2.95;1.60;;;17.90;99.90;;;;;;4997617;28;20034;-74
2021/08/07 06:57:06;;;;;;;3.95;2.00;;;18.00;99.90;;;;;;4998119;28;20525;-74
2021/08/07 06:59:32;;;;;;;4.65;1.60;;;18.10;99.90;;;;;;4996631;28;20038;-74
2021/08/07 07:01:58;;;;;;;2.95;1.38;;;18.10;99.90;;;;;;4997487;28;20505;-74
2021/08/07 07:04:23;;;;;;;6.95;1.92;;;18.20;99.90;;;;;;4996400;28;20023;-74
2021/08/07 07:06:49;;;;;;;2.65;1.50;;;18.50;99.90;;;;;;4996245;28;20031;-74
2021/08/07 07:09:14;;;;;;;4.30;1.58;;;18.60;99.90;;;;;;4997311;28;20081;-74
2021/08/07 07:11:40;;;;;;;3.50;1.40;;;18.70;99.90;;;;;;4997295;28;20038;-74
2021/08/07 07:14:06;;;;;;;2.80;1.52;;;18.80;99.90;;;;;;4997171;28;20026;-74
2021/08/07 07:16:32;;;;;;;2.42;1.50;;;18.90;99.90;;;;;;4997420;28;20252;-74
2021/08/07 07:18:58;;;;;;;3.58;1.35;;;19.00;99.90;;;;;;4995939;28;20022;-74
2021/08/07 07:21:24;;;;;;;2.97;1.33;;;19.10;99.90;;;;;;4997076;28;20031;-74
2021/08/07 07:23:49;;;;;;;3.70;1.67;;;19.20;99.90;;;;;;4997019;28;20080;-74
2021/08/07 07:26:15;;;;;;;4.38;1.60;;;19.40;99.90;;;;;;4996750;28;20026;-74
2021/08/07 07:28:40;;;;;;;2.30;1.27;;;19.40;99.90;;;;;;4996377;28;20034;-73
2021/08/07 07:31:06;;;;;;;5.65;1.50;;;19.60;99.90;;;;;;4996893;28;20084;-74
2021/08/07 07:33:31;;;;;;;4.88;2.45;;;19.40;99.90;;;;;;4996589;28;20030;-74
2021/08/07 07:35:57;;;;;;;4.63;1.40;;;19.40;99.90;;;;;;4996824;28;20041;-74
2021/08/07 07:38:23;;;;;;;1.33;0.90;;;19.60;99.90;;;;;;4996668;28;20432;-74
2021/08/07 07:40:48;;;;;;;2.15;1.23;;;19.80;99.90;;;;;;4996377;28;20508;-74
2021/08/07 07:43:15;;;;;;;2.72;1.55;;;19.70;99.90;;;;;;4995196;28;20034;-74
2021/08/07 07:45:40;;;;;;;2.30;1.20;;;19.50;99.90;;;;;;4996774;28;20026;-74
2021/08/07 07:48:06;;;;;;;3.05;1.35;;;19.50;99.90;;;;;;5011030;28;20348;-74
2021/08/07 07:50:32;;;;;;;2.25;1.30;;;19.50;99.90;;;;;;5016070;28;20711;-74
2021/08/07 07:52:57;;;;;;;3.38;1.30;;;19.50;99.90;;;;;;5015622;28;20065;-74
2021/08/07 07:55:24;;;;;;;1.45;1.20;;;19.40;99.90;;;;;;5006743;28;20050;-74
2021/08/07 07:57:49;;;;;;;1.88;1.25;;;19.70;99.90;;;;;;4996105;28;20040;-73
2021/08/07 08:00:15;;;;;;;1.65;1.27;;;19.90;99.90;;;;;;4995077;28;20046;-74
2021/08/07 08:02:40;;;;;;;2.38;1.35;;;20.40;99.90;;;;;;4996164;28;20049;-74
2021/08/07 08:05:06;;;;;;;4.68;1.60;;;20.20;99.90;;;;;;4994624;28;20042;-74
2021/08/07 08:07:31;;;;;;;3.97;1.40;;;20.30;99.90;;;;;;4996826;28;20034;-74
2021/08/07 08:09:57;;;;;;;3.35;1.73;;;20.40;99.90;;;;;;5015490;28;20021;-74
2021/08/07 08:12:23;;;;;;;4.80;1.45;;;20.30;99.90;;;;;;5015494;28;20030;-74
2021/08/07 08:14:48;;;;;;;4.38;1.55;;;20.10;99.90;;;;;;5006753;28;20034;-74
2021/08/07 08:17:14;;;;;;;3.97;1.60;;;20.20;99.90;;;;;;4997185;28;20026;-74
2021/08/07 08:19:41;;;;;;;3.35;1.60;;;20.30;99.90;;;;;;4996044;28;20038;-74
2021/08/07 08:22:07;;;;;;;2.10;1.33;;;20.30;99.90;;;;;;4995062;28;20033;-75
2021/08/07 08:24:33;;;;;;;2.72;1.38;;;20.20;99.90;;;;;;4994730;28;20027;-74
2021/08/07 08:26:58;;;;;;;4.65;1.42;;;20.20;99.90;;;;;;4995150;28;20448;-74
2021/08/07 08:29:24;;;;;;;3.13;1.50;;;20.20;99.90;;;;;;4995014;28;20033;-74
2021/08/07 08:31:49;;;;;;;3.45;1.60;;;20.30;99.90;;;;;;4995196;28;20027;-74
2021/08/07 08:34:15;;;;;;;1.70;1.33;;;20.50;99.90;;;;;;4994969;28;20034;-74
2021/08/07 08:36:41;;;;;;;2.80;1.40;;;20.60;99.90;;;;;;4994885;28;20129;-74
2021/08/07 08:39:06;;;;;;;3.63;1.52;;;20.70;99.90;;;;;;4994775;28;20560;-74
2021/08/07 08:41:36;;;;;;;3.45;1.50;;;20.60;99.90;;;;;;4993538;28;20022;-74
2021/08/07 08:44:03;;;;;;;3.35;1.20;;;20.70;99.90;;;;;;4994931;28;20031;-74
2021/08/07 08:46:30;;;;;;;5.40;1.80;;;20.70;99.90;;;;;;4994600;28;20022;-74
2021/08/07 08:48:56;;;;;;;1.80;1.30;;;20.80;99.90;;;;;;4994418;28;20393;-74
2021/08/07 08:51:25;;;;;;;2.92;1.13;;;20.80;99.90;;;;;;4993510;28;20023;-74
2021/08/07 08:53:52;;;;;;;2.92;1.27;;;20.60;99.90;;;;;;4994678;28;20037;-74
2021/08/07 08:56:17;;;;;;;3.47;1.42;;;20.70;99.90;;;;;;4993069;28;20030;-74
2021/08/07 08:58:44;;;;;;;2.97;1.20;;;20.80;99.90;;;;;;4994453;28;20035;-74
2021/08/07 09:01:10;;;;;;;6.22;1.50;;;20.70;99.90;;;;;;4994588;28;20031;-74
2021/08/07 09:03:36;;;;;;;4.25;1.38;;;21.00;99.90;;;;;;4993034;28;20089;-74
2021/08/07 09:06:02;;;;;;;3.08;1.45;;;21.20;99.90;;;;;;4994228;28;20038;-74
2021/08/07 09:08:27;;;;;;;3.40;1.30;;;21.40;99.90;;;;;;4994113;28;20026;-74
2021/08/07 09:11:13;;;;;;;3.63;1.35;;;21.40;99.90;;;;;;4993733;28;20030;-75
2021/08/07 09:13:39;;;;;;;1.55;1.30;;;21.50;99.90;;;;;;4994040;28;20313;-74
2021/08/07 09:16:10;;;;;;;3.58;1.40;;;21.60;99.90;;;;;;4994485;28;20073;-74
2021/08/07 09:18:35;;;;;;;2.80;1.40;;;21.60;99.90;;;;;;4992608;28;20405;-74
2021/08/07 09:21:17;;;;;;;3.88;1.63;;;21.80;99.90;;;;;;4992669;28;20038;-74
2021/08/07 09:23:43;;;;;;;2.88;1.50;;;22.30;99.90;;;;;;4993827;28;20054;-74
2021/08/07 09:26:11;;;;;;;3.05;1.40;;;22.50;99.90;;;;;;4993634;28;20101;-74
2021/08/07 09:28:57;;;;;;;2.47;1.50;;;22.70;99.90;;;;;;4993705;28;20106;-75
2021/08/07 09:31:25;;;;;;;2.97;1.20;;;23.00;99.90;;;;;;4992294;28;20032;-75
2021/08/07 09:34:13;;;;;;;4.15;1.52;;;23.10;99.90;;;;;;4992295;28;20496;-74
2021/08/07 09:36:50;;;;;;;2.03;1.20;;;22.90;99.90;;;;;;4993283;28;20034;-74
2021/08/07 09:39:16;;;;;;;2.17;1.25;;;22.60;99.90;;;;;;4993708;28;20029;-74
2021/08/07 09:41:58;;;;;;;2.05;1.30;;;22.50;99.90;;;;;;4993039;28;20030;-75
2021/08/07 09:44:23;;;;;;;2.42;1.30;;;22.30;99.90;;;;;;4993066;28;20023;-75
2021/08/07 09:46:49;;;;;;;2.38;1.67;;;22.20;99.90;;;;;;4992296;28;20033;-74
2021/08/07 09:49:15;;;;;;;1.95;1.38;;;22.10;99.90;;;;;;4992365;28;20392;-75
2021/08/07 09:51:41;;;;;;;3.30;1.38;;;22.20;99.90;;;;;;4993362;28;20018;-74
2021/08/07 09:54:09;;;;;;;5.00;1.80;;;22.20;99.90;;;;;;4991878;28;20477;-74
2021/08/07 09:56:45;;;;;;;2.97;1.92;;;22.10;99.90;;;;;;4993175;28;20030;-74
2021/08/07 09:59:11;;;;;;;1.65;1.40;;;22.20;99.90;;;;;;4993596;28;20511;-74
2021/08/07 10:01:37;;;;;;;4.32;1.40;;;22.40;99.90;;;;;;4992959;28;20156;-75
2021/08/07 10:04:10;;;;;;;2.17;1.30;;;22.80;99.90;;;;;;4991824;28;20536;-74
2021/08/07 10:06:36;;;;;;;3.70;1.80;;;22.90;99.90;;;;;;5012351;28;20022;-75
2021/08/07 10:09:03;;;;;;;3.55;1.58;;;23.20;99.90;;;;;;5012528;28;20030;-74
2021/08/07 10:11:29;;;;;;;2.38;1.48;;;23.10;99.90;;;;;;5012604;28;20399;-75
2021/08/07 10:13:55;;;;;;;2.42;1.85;;;23.00;99.90;;;;;;5011194;28;20037;-75
2021/08/07 10:16:22;;;;;;;5.25;2.08;;;22.80;99.90;;;;;;4992766;28;20392;-74
2021/08/07 10:18:49;;;;;;;2.92;1.73;;;22.80;99.90;;;;;;4991203;28;20069;-74
2021/08/07 10:21:15;;;;;;;2.55;1.75;;;22.60;99.90;;;;;;4992832;28;20126;-74
2021/08/07 10:23:41;;;;;;;3.42;1.63;;;22.50;99.90;;;;;;4991422;28;20034;-74
2021/08/07 10:26:12;;;;;;;3.22;1.48;;;22.50;99.90;;;;;;4992835;28;20019;-74
2021/08/07 10:28:48;;;;;;;3.20;1.60;;;22.30;99.90;;;;;;4991416;28;20085;-74
2021/08/07 10:31:15;;;;;;;3.28;1.70;;;22.20;99.90;;;;;;4991252;28;20033;-74
2021/08/07 10:33:46;;;;;;;1.77;1.58;;;22.40;99.90;;;;;;4992289;28;20428;-74
2021/08/07 10:36:13;;;;;;;2.35;1.83;;;22.80;99.90;;;;;;4991185;28;20036;-74
2021/08/07 10:38:39;;;;;;;2.03;1.80;;;22.90;99.90;;;;;;4991128;28;20030;-74
2021/08/07 10:41:07;;;;;;;48.03;6.03;;;23.30;99.90;;;;;;4992419;28;20026;-75
2021/08/07 10:43:35;;;;;;;5.05;1.80;;;23.80;99.90;;;;;;4992508;28;20046;-74
2021/08/07 10:46:04;;;;;;;3.63;2.13;;;23.30;99.90;;;;;;4992241;28;20026;-75
2021/08/07 10:48:36;;;;;;;3.30;1.75;;;23.40;99.90;;;;;;4992309;28;20023;-75
2021/08/07 10:51:22;;;;;;;2.10;1.90;;;23.40;99.90;;;;;;4992221;28;20034;-74
2021/08/07 10:53:49;;;;;;;2.27;1.40;;;23.10;99.90;;;;;;4980761;28;20027;-74
2021/08/07 10:56:37;;;;;;;4.10;1.80;;;22.80;99.90;;;;;;4992492;28;20076;-74
2021/08/07 10:59:11;;;;;;;3.92;1.80;;;22.80;99.90;;;;;;4992480;28;20045;-74
2021/08/07 11:01:39;;;;;;;2.85;1.85;;;22.90;99.90;;;;;;4992305;28;20077;-74
2021/08/07 11:04:16;;;;;;;1.98;1.67;;;23.00;99.90;;;;;;4992129;28;20504;-75
2021/08/07 11:06:41;;;;;;;3.83;1.67;;;22.70;99.90;;;;;;4992242;28;20088;-75
2021/08/07 11:09:40;;;;;;;2.50;1.80;;;22.90;99.90;;;;;;4992025;28;20440;-75
2021/08/07 11:12:06;;;;;;;3.40;1.75;;;22.90;99.90;;;;;;4991663;28;20092;-74
2021/08/07 11:14:34;;;;;;;4.05;1.77;;;23.00;99.90;;;;;;4992035;28;20490;-74
2021/08/07 11:17:03;;;;;;;3.58;1.67;;;23.50;99.90;;;;;;4991396;28;20026;-75
2021/08/07 11:20:04;;;;;;;3.20;1.70;;;23.50;99.90;;;;;;4991892;28;20022;-74
2021/08/07 11:25:07;;;;;;;3.58;2.17;;;23.30;99.90;;;;;;4992258;28;20030;-74
2021/08/07 11:30:30;;;;;;;3.97;1.90;;;23.00;99.90;;;;;;4992617;28;20113;-74
2021/08/07 11:32:56;;;;;;;3.08;1.70;;;22.80;99.90;;;;;;4995392;28;20037;-74
2021/08/07 11:35:49;;;;;;;2.97;1.80;;;22.60;99.90;;;;;;4993792;28;20026;-73
2021/08/07 11:38:22;;;;;;;2.72;1.90;;;22.40;99.90;;;;;;4994350;28;20042;-74
2021/08/07 11:40:50;;;;;;;4.25;1.75;;;22.60;99.90;;;;;;4995228;28;20045;-74
2021/08/07 11:43:23;;;;;;;6.40;1.77;;;23.10;99.90;;;;;;4993837;28;20535;-74
2021/08/07 11:45:55;;;;;;;2.80;1.83;;;23.20;99.90;;;;;;4995033;28;20022;-74
2021/08/07 11:48:22;;;;;;;3.20;1.95;;;23.70;99.90;;;;;;4994961;28;20061;-75
2021/08/07 11:50:48;;;;;;;4.90;2.30;;;23.60;99.90;;;;;;4993527;28;20034;-74
2021/08/07 11:53:21;;;;;;;2.15;1.80;;;23.60;99.90;;;;;;4995054;28;20480;-74
2021/08/07 11:55:56;;;;;;;3.42;1.80;;;23.40;99.90;;;;;;4994795;28;20378;-75
2021/08/07 11:58:22;;;;;;;2.35;1.63;;;23.30;99.90;;;;;;4994931;28;20022;-74
2021/08/07 12:00:48;;;;;;;4.60;2.20;;;23.90;99.90;;;;;;4994531;28;20037;-74
2021/08/07 12:03:14;;;;;;;2.72;1.90;;;24.10;99.90;;;;;;4994663;28;20057;-74
2021/08/07 12:05:52;;;;;;;3.42;2.00;;;24.30;99.90;;;;;;4994593;28;20030;-75
2021/08/07 12:08:17;;;;;;;3.45;1.85;;;24.00;99.90;;;;;;4993463;28;20106;-74
2021/08/07 12:10:56;;;;;;;4.45;1.85;;;24.00;99.90;;;;;;4993278;28;20109;-74
2021/08/07 12:13:24;;;;;;;3.13;1.90;;;23.70;99.90;;;;;;4994818;28;20050;-75
2021/08/07 12:15:51;;;;;;;3.67;1.90;;;23.40;99.90;;;;;;4994616;28;20031;-75
2021/08/07 12:18:17;;;;;;;5.53;2.25;;;23.20;99.90;;;;;;4994654;28;20037;-74
2021/08/07 12:20:46;;;;;;;4.80;2.00;;;23.30;99.90;;;;;;4994255;28;20030;-74
2021/08/07 12:23:12;;;;;;;3.35;2.15;;;23.30;99.90;;;;;;4994439;28;20109;-74
2021/08/07 12:25:37;;;;;;;5.95;2.00;;;23.30;99.90;;;;;;4994222;28;20428;-75
2021/08/07 12:28:11;;;;;;;2.85;1.88;;;23.20;99.90;;;;;;4993302;28;20022;-74
2021/08/07 12:30:51;;;;;;;2.70;1.90;;;23.00;99.90;;;;;;4994306;28;20551;-75
2021/08/07 12:33:19;;;;;;;2.72;1.70;;;23.20;99.90;;;;;;4994338;28;20037;-75
2021/08/07 12:35:45;;;;;;;3.90;1.88;;;23.30;99.90;;;;;;4993785;28;20489;-75
2021/08/07 12:38:20;;;;;;;2.92;2.10;;;23.20;99.90;;;;;;4994192;28;20033;-74
2021/08/07 12:40:48;;;;;;;4.60;2.20;;;23.20;99.90;;;;;;4993540;28;20030;-74
2021/08/07 12:43:14;;;;;;;2.00;1.80;;;23.30;99.90;;;;;;4993899;28;20023;-74
2021/08/07 12:45:40;;;;;;;3.60;2.22;;;23.50;99.90;;;;;;4994240;28;20398;-75
2021/08/07 12:48:06;;;;;;;3.42;1.98;;;23.60;99.90;;;;;;4993056;28;20037;-74
2021/08/07 12:50:32;;;;;;;2.88;1.80;;;23.80;99.90;;;;;;4993781;28;20034;-74
2021/08/07 12:53:03;;;;;;;3.80;1.90;;;23.60;99.90;;;;;;4993942;28;20080;-74